Time;durP1;ratioP1;P1;durP2;ratioP2;P2;SDS_P1;SDS_P2;PMS_P1;PMS_P2;Temp;Humidity;BMP_temperature;BMP_pressure;BME280_temperature;BME280_humidity;BME280_pressure;Samples;Min_cycle;Max_cycle;Signal;HPM_P1;HPM_P2
2022/01/14 00:01:33;;;;;;;9.32;3.67;;;1.00;99.90;;;;;;4998600;28;20126;-78
2022/01/14 00:04:01;;;;;;;11.07;3.95;;;1.00;99.90;;;;;;5005669;28;20049;-78
2022/01/14 00:06:28;;;;;;;9.10;3.58;;;1.10;99.90;;;;;;5022350;28;20407;-78
2022/01/14 00:09:05;;;;;;;9.93;3.67;;;0.90;99.90;;;;;;5002598;28;20474;-81
2022/01/14 00:12:10;;;;;;;9.50;3.83;;;1.00;99.90;;;;;;4990581;28;20054;-76
2022/01/14 00:14:40;;;;;;;10.18;3.63;;;0.90;99.90;;;;;;4989513;28;20038;-76
2022/01/14 00:17:13;;;;;;;11.07;3.60;;;0.90;99.90;;;;;;4955912;28;20054;-83
2022/01/14 00:19:43;;;;;;;10.80;3.20;;;0.80;99.90;;;;;;4988988;28;20050;-81
2022/01/14 00:22:15;;;;;;;11.10;3.80;;;0.80;99.90;;;;;;4987351;28;20046;-78
2022/01/14 00:33:09;;;;;;;10.13;3.30;;;0.70;99.90;;;;;;4988152;28;20050;-87
2022/01/14 00:35:42;;;;;;;10.52;3.22;;;0.70;99.90;;;;;;4987693;28;20375;-81
2022/01/14 00:38:11;;;;;;;6.97;3.30;;;0.70;99.90;;;;;;4971899;28;20046;-82
2022/01/14 00:40:40;;;;;;;9.60;3.45;;;0.70;99.90;;;;;;4989209;28;20042;-85
2022/01/14 00:43:09;;;;;;;7.38;2.92;;;0.70;99.90;;;;;;4988006;28;20543;-85
2022/01/14 00:45:37;;;;;;;11.65;3.53;;;0.60;99.90;;;;;;5004468;28;20499;-85
2022/01/14 00:48:05;;;;;;;10.10;3.47;;;0.60;99.90;;;;;;4993761;28;20495;-76
2022/01/14 00:50:33;;;;;;;;;;;0.60;99.90;;;;;;5003943;28;20832;-87
2022/01/14 00:53:03;;;;;;;9.57;3.30;;;0.60;99.90;;;;;;4988670;28;20390;-78
2022/01/14 00:55:45;;;;;;;10.40;3.38;;;0.60;99.90;;;;;;4987487;28;20054;-75
2022/01/14 01:00:59;;;;;;;12.75;3.08;;;0.50;99.90;;;;;;4971730;28;20051;-81
2022/01/14 01:03:28;;;;;;;;;;;0.50;99.90;;;;;;4989003;28;20042;-86
2022/01/14 01:05:56;;;;;;;8.82;3.17;;;0.40;99.90;;;;;;4990818;28;19922;-85
2022/01/14 01:08:26;;;;;;;8.25;3.00;;;0.40;99.90;;;;;;4989065;28;20054;-81
2022/01/14 01:10:54;;;;;;;6.95;2.85;;;0.40;99.90;;;;;;4987621;28;20530;-78
2022/01/14 01:13:29;;;;;;;11.57;3.35;;;0.40;99.90;;;;;;4973707;28;20068;-81
2022/01/14 01:15:57;;;;;;;8.35;2.88;;;0.40;99.90;;;;;;4990349;28;20047;-85
2022/01/14 01:18:25;;;;;;;7.32;2.90;;;0.40;99.90;;;;;;4989336;28;20553;-77
2022/01/14 01:20:53;;;;;;;6.75;2.70;;;0.30;99.90;;;;;;4990107;28;20046;-81
2022/01/14 01:23:21;;;;;;;9.40;3.00;;;0.30;99.90;;;;;;4990215;28;20050;-80
2022/01/14 01:26:09;;;;;;;7.85;3.08;;;0.20;99.90;;;;;;4989484;28;20511;-77
2022/01/14 01:28:52;;;;;;;8.38;2.97;;;0.20;99.90;;;;;;4991693;28;20038;-76
2022/01/14 01:31:35;;;;;;;7.53;2.42;;;0.20;99.90;;;;;;4994000;28;20404;-75
2022/01/14 01:34:09;;;;;;;7.70;2.70;;;0.20;99.90;;;;;;4994764;28;20042;-75
2022/01/14 01:36:38;;;;;;;7.03;2.30;;;0.20;99.90;;;;;;4997487;28;20069;-75
2022/01/14 01:39:08;;;;;;;7.65;2.38;;;0.20;99.90;;;;;;4997913;28;20049;-75
2022/01/14 01:41:38;;;;;;;7.45;2.60;;;0.20;99.90;;;;;;4996434;28;20042;-75
2022/01/14 01:44:07;;;;;;;8.07;2.53;;;0.20;99.90;;;;;;4977789;28;20042;-80
2022/01/14 01:46:40;;;;;;;8.55;2.47;;;0.10;99.90;;;;;;4992062;28;20122;-84
2022/01/14 01:49:10;;;;;;;6.00;2.30;;;0.20;99.90;;;;;;4992571;28;20050;-83
2022/01/14 01:51:39;;;;;;;8.35;2.55;;;0.20;99.90;;;;;;4994618;28;20494;-83
2022/01/14 01:54:07;;;;;;;6.78;2.30;;;0.20;99.90;;;;;;4976471;28;20050;-81
2022/01/14 01:56:35;;;;;;;6.20;1.95;;;0.20;99.90;;;;;;4994022;28;20049;-79
2022/01/14 01:59:04;;;;;;;6.30;2.20;;;0.20;99.90;;;;;;4992830;28;20173;-82
2022/01/14 02:01:33;;;;;;;7.90;2.30;;;0.20;99.90;;;;;;4993080;28;20046;-80
2022/01/14 02:04:01;;;;;;;6.43;2.30;;;0.20;99.90;;;;;;4994307;28;20050;-90
2022/01/14 02:06:30;;;;;;;9.45;2.70;;;0.20;99.90;;;;;;4995056;28;20050;-81
2022/01/14 02:08:58;;;;;;;7.80;2.33;;;0.20;99.90;;;;;;4993564;28;20054;-84
2022/01/14 02:11:25;;;;;;;;;;;0.20;99.90;;;;;;4992809;28;20070;-87
2022/01/14 02:13:56;;;;;;;8.57;2.30;;;0.20;99.90;;;;;;4992454;28;19933;-86
2022/01/14 02:16:33;;;;;;;8.88;2.15;;;0.20;99.90;;;;;;4991871;28;20061;-79
2022/01/14 02:19:24;;;;;;;7.18;2.38;;;0.30;99.90;;;;;;4988289;28;20047;-85
2022/01/14 02:22:12;;;;;;;7.53;2.38;;;0.10;99.90;;;;;;4977094;28;20054;-92
2022/01/14 02:27:14;;;;;;;6.40;2.28;;;0.10;99.90;;;;;;4974046;28;20051;-89
2022/01/14 02:29:42;;;;;;;8.30;2.42;;;0.10;99.90;;;;;;4988734;28;20051;-81
2022/01/14 02:32:10;;;;;;;8.82;2.40;;;0.10;99.90;;;;;;5003868;28;20057;-86
2022/01/14 02:34:38;;;;;;;9.25;2.33;;;0.10;99.90;;;;;;4992492;28;20054;-75
2022/01/14 02:37:07;;;;;;;9.95;2.60;;;0.00;99.90;;;;;;5001624;28;20053;-87
2022/01/14 02:39:35;;;;;;;9.32;2.42;;;-0.10;99.90;;;;;;4997227;28;20058;-88
2022/01/14 02:42:04;;;;;;;12.27;2.55;;;0.00;99.90;;;;;;4996008;28;20065;-84
2022/01/14 02:44:32;;;;;;;10.02;2.80;;;0.00;99.90;;;;;;4994064;28;20057;-82
2022/01/14 02:47:05;;;;;;;8.10;2.40;;;0.00;99.90;;;;;;4992601;28;20049;-82
2022/01/14 02:49:36;;;;;;;6.07;2.13;;;-0.10;99.90;;;;;;4994149;28;20042;-82
2022/01/14 02:52:07;;;;;;;10.93;2.50;;;-0.10;99.90;;;;;;4990063;28;20046;-82
2022/01/14 02:54:41;;;;;;;7.57;2.13;;;-0.10;99.90;;;;;;4988317;28;20051;-81
2022/01/14 02:57:13;;;;;;;8.63;2.55;;;-0.10;99.90;;;;;;4972089;28;20061;-77
2022/01/14 02:59:42;;;;;;;8.18;2.42;;;-0.10;99.90;;;;;;4987061;28;20047;-83
2022/01/14 03:02:10;;;;;;;6.93;2.30;;;-0.20;99.90;;;;;;4971592;28;20054;-82
2022/01/14 03:04:41;;;;;;;10.13;2.50;;;-0.20;99.90;;;;;;4989794;28;20050;-82
2022/01/14 03:07:10;;;;;;;9.40;2.55;;;-0.20;99.90;;;;;;4988775;28;20054;-87
2022/01/14 03:09:38;;;;;;;6.97;2.40;;;-0.30;99.90;;;;;;4987573;28;20057;-85
2022/01/14 03:12:07;;;;;;;6.32;2.38;;;-0.30;99.90;;;;;;4974882;28;20050;-88
2022/01/14 03:14:35;;;;;;;7.82;2.63;;;-0.30;99.90;;;;;;4988656;28;20054;-83
2022/01/14 03:17:03;;;;;;;10.07;2.78;;;-0.30;99.90;;;;;;4988396;28;20053;-83
2022/01/14 03:19:31;;;;;;;;;;;-0.30;99.90;;;;;;4986246;28;20409;-89
2022/01/14 03:22:18;;;;;;;9.88;2.20;;;-0.30;99.90;;;;;;4996561;28;19997;-74
2022/01/14 03:27:14;;;;;;;6.80;2.20;;;-0.30;99.90;;;;;;4989282;28;20050;-82
2022/01/14 03:29:42;;;;;;;9.55;2.45;;;-0.40;99.90;;;;;;4972916;28;20043;-82
2022/01/14 03:32:10;;;;;;;7.57;2.22;;;-0.40;99.90;;;;;;4989069;28;20046;-86
2022/01/14 03:34:38;;;;;;;9.05;2.53;;;-0.40;99.90;;;;;;4989396;28;20050;-87
2022/01/14 03:37:06;;;;;;;7.28;2.20;;;-0.40;99.90;;;;;;4989231;28;20046;-86
2022/01/14 03:39:34;;;;;;;;;;;-0.40;99.90;;;;;;4995705;28;20054;-86
2022/01/14 03:42:03;;;;;;;6.95;1.80;;;-0.40;99.90;;;;;;5023337;28;19922;-79
2022/01/14 03:44:30;;;;;;;5.55;2.00;;;-0.40;99.90;;;;;;5004204;28;20054;-77
2022/01/14 03:46:58;;;;;;;8.25;2.13;;;-0.40;99.90;;;;;;5000153;28;20042;-76
2022/01/14 03:49:26;;;;;;;8.30;2.50;;;-0.50;99.90;;;;;;5004332;28;20072;-81
2022/01/14 03:51:53;;;;;;;6.78;2.20;;;-0.50;99.90;;;;;;4997070;28;20053;-85
2022/01/14 03:54:23;;;;;;;7.50;2.60;;;-0.50;99.90;;;;;;4984439;28;20061;-76
2022/01/14 03:56:52;;;;;;;6.50;2.00;;;-0.50;99.90;;;;;;4996661;28;20077;-80
2022/01/14 03:59:20;;;;;;;6.60;2.00;;;-0.40;99.90;;;;;;4994810;28;20046;-79
2022/01/14 04:01:48;;;;;;;6.63;1.85;;;-0.40;99.90;;;;;;5009089;28;20050;-77
2022/01/14 04:04:16;;;;;;;10.13;2.47;;;-0.40;99.90;;;;;;5005049;28;20058;-75
2022/01/14 04:06:43;;;;;;;7.10;1.85;;;-0.40;99.90;;;;;;5014102;28;20685;-78
2022/01/14 04:09:11;;;;;;;6.75;2.20;;;-0.40;99.90;;;;;;5010361;28;20049;-83
2022/01/14 04:11:39;;;;;;;6.40;1.88;;;-0.40;99.90;;;;;;5009306;28;20041;-80
2022/01/14 04:15:36;;;;;;;;;;;-0.40;99.90;;;;;;5000578;28;20054;-79
2022/01/14 04:16:57;;;;;;;11.68;2.05;;;-0.40;99.90;;;;;;4988028;28;20381;-77
2022/01/14 04:19:29;;;;;;;9.73;2.38;;;-0.40;99.90;;;;;;4989630;28;20054;-82
2022/01/14 04:21:57;;;;;;;7.13;2.25;;;-0.40;99.90;;;;;;5005029;28;20058;-83
2022/01/14 04:24:25;;;;;;;6.05;2.00;;;-0.30;99.90;;;;;;4988491;28;20054;-77
2022/01/14 04:26:52;;;;;;;6.28;2.13;;;-0.40;99.90;;;;;;4988238;28;20054;-82
2022/01/14 04:29:20;;;;;;;7.20;2.67;;;-0.40;99.90;;;;;;4988415;28;20054;-83
2022/01/14 04:31:48;;;;;;;10.07;2.40;;;-0.30;99.90;;;;;;4987953;28;20779;-80
2022/01/14 04:34:16;;;;;;;8.05;2.22;;;-0.40;99.90;;;;;;4987224;28;20051;-79
2022/01/14 04:36:44;;;;;;;9.55;2.35;;;-0.30;99.90;;;;;;4987965;28;20054;-84
2022/01/14 04:39:12;;;;;;;11.10;3.00;;;-0.30;99.90;;;;;;4987543;28;20047;-80
2022/01/14 04:41:39;;;;;;;10.50;2.65;;;-0.30;99.90;;;;;;5004017;28;20054;-77
2022/01/14 04:44:07;;;;;;;8.73;2.53;;;-0.30;99.90;;;;;;5003524;28;20407;-82
2022/01/14 04:49:08;;;;;;;11.43;3.05;;;-0.20;99.90;;;;;;4989422;28;20050;-81
2022/01/14 04:51:38;;;;;;;12.88;3.00;;;-0.20;99.90;;;;;;4988965;28;20043;-74
2022/01/14 04:54:06;;;;;;;10.88;3.38;;;-0.10;99.90;;;;;;4987037;28;20050;-82
2022/01/14 04:56:34;;;;;;;;;;;-0.10;99.90;;;;;;4988509;28;20046;-80
2022/01/14 04:59:01;;;;;;;10.15;3.10;;;-0.10;99.90;;;;;;4971814;28;19922;-75
2022/01/14 05:01:29;;;;;;;12.02;3.38;;;-0.10;99.90;;;;;;4987496;28;20387;-74
2022/01/14 05:03:58;;;;;;;14.05;3.47;;;-0.10;99.90;;;;;;4971587;28;20054;-80
2022/01/14 05:06:27;;;;;;;11.45;4.13;;;-0.10;99.90;;;;;;4988747;28;20043;-74
2022/01/14 05:08:56;;;;;;;10.38;3.88;;;0.00;99.90;;;;;;4988703;28;20058;-74
2022/01/14 05:11:35;;;;;;;16.75;4.55;;;0.00;99.90;;;;;;4987933;28;20050;-74
2022/01/14 05:14:03;;;;;;;11.27;3.92;;;0.00;99.90;;;;;;4989119;28;20054;-74
2022/01/14 05:16:30;;;;;;;11.98;3.90;;;0.10;99.90;;;;;;4987331;28;20046;-74
2022/01/14 05:18:58;;;;;;;14.30;4.50;;;0.10;99.90;;;;;;4987071;28;20060;-80
2022/01/14 05:21:26;;;;;;;12.25;4.18;;;0.10;99.90;;;;;;4988720;28;20066;-79
2022/01/14 05:23:53;;;;;;;12.95;4.80;;;0.10;99.90;;;;;;4988187;28;20558;-82
2022/01/14 05:26:21;;;;;;;19.27;4.97;;;0.10;99.90;;;;;;4987151;28;20098;-82
2022/01/14 05:28:49;;;;;;;18.38;4.90;;;0.00;99.90;;;;;;4987112;28;20046;-83
2022/01/14 05:31:17;;;;;;;17.65;4.68;;;0.00;99.90;;;;;;4987186;28;20069;-83
2022/01/14 05:33:46;;;;;;;14.68;5.15;;;0.00;99.90;;;;;;4983534;28;20050;-79
2022/01/14 05:36:18;;;;;;;13.20;5.57;;;0.00;99.90;;;;;;4986130;28;20050;-83
2022/01/14 05:38:46;;;;;;;15.93;5.05;;;0.00;99.90;;;;;;4987099;28;20077;-82
2022/01/14 05:41:18;;;;;;;25.83;5.78;;;0.00;99.90;;;;;;4987506;28;20046;-82
2022/01/14 05:43:45;;;;;;;18.17;5.70;;;0.00;99.90;;;;;;4986555;28;20058;-77
2022/01/14 05:46:13;;;;;;;22.13;6.18;;;0.00;99.90;;;;;;4986776;28;20046;-78
2022/01/14 05:48:41;;;;;;;18.63;6.18;;;0.00;99.90;;;;;;4986137;28;20054;-80
2022/01/14 05:51:09;;;;;;;24.73;6.25;;;0.00;99.90;;;;;;4987470;28;20062;-77
2022/01/14 05:53:37;;;;;;;20.33;6.38;;;0.00;99.90;;;;;;4986387;28;20124;-78
2022/01/14 05:56:05;;;;;;;18.75;5.93;;;0.00;99.90;;;;;;4987031;28;20531;-81
2022/01/14 05:58:32;;;;;;;19.45;6.05;;;0.00;99.90;;;;;;4969785;28;20062;-77
2022/01/14 06:01:00;;;;;;;19.13;5.97;;;0.00;99.90;;;;;;4987301;28;20050;-79
2022/01/14 06:03:28;;;;;;;22.35;6.63;;;0.00;99.90;;;;;;4986127;28;20863;-75
2022/01/14 06:05:56;;;;;;;19.25;6.82;;;0.00;99.90;;;;;;4985987;28;20069;-74
2022/01/14 06:08:24;;;;;;;17.40;6.00;;;-0.10;99.90;;;;;;4966681;28;20062;-79
2022/01/14 06:10:51;;;;;;;21.23;6.47;;;-0.10;99.90;;;;;;4985676;28;20080;-79
2022/01/14 06:13:19;;;;;;;19.63;6.22;;;-0.10;99.90;;;;;;4985713;28;20085;-80
2022/01/14 06:15:47;;;;;;;18.52;5.68;;;-0.20;99.90;;;;;;4986113;28;20042;-77
2022/01/14 06:18:15;;;;;;;18.38;5.97;;;-0.20;99.90;;;;;;4987090;28;20557;-80
2022/01/14 06:20:42;;;;;;;16.98;6.05;;;-0.30;99.90;;;;;;4987429;28;20034;-73
2022/01/14 06:23:10;;;;;;;23.33;6.75;;;-0.30;99.90;;;;;;4985805;28;20539;-77
2022/01/14 06:25:38;;;;;;;14.80;6.13;;;-0.30;99.90;;;;;;4985785;28;20046;-77
2022/01/14 06:28:06;;;;;;;22.05;6.70;;;-0.40;99.90;;;;;;4985656;28;20559;-77
2022/01/14 06:30:34;;;;;;;22.13;7.13;;;-0.40;99.90;;;;;;4986821;28;20047;-82
2022/01/14 06:33:02;;;;;;;23.63;6.97;;;-0.50;99.90;;;;;;4985669;28;20503;-74
2022/01/14 06:35:29;;;;;;;18.80;7.13;;;-0.50;99.90;;;;;;4985555;28;20708;-79
2022/01/14 06:37:58;;;;;;;20.50;6.43;;;-0.50;99.90;;;;;;4985520;28;20054;-79
2022/01/14 06:40:30;;;;;;;19.10;7.28;;;-0.50;99.90;;;;;;4985869;28;20071;-80
2022/01/14 06:42:58;;;;;;;24.67;7.93;;;-0.50;99.90;;;;;;4986940;28;20054;-74
2022/01/14 06:45:26;;;;;;;19.58;7.50;;;-0.50;99.90;;;;;;4986372;28;20054;-80
2022/01/14 06:47:54;;;;;;;22.67;8.40;;;-0.50;99.90;;;;;;4985342;28;20495;-80
2022/01/14 06:50:22;;;;;;;20.98;8.25;;;-0.50;99.90;;;;;;4985401;28;20050;-82
2022/01/14 06:52:50;;;;;;;;;;;-0.50;99.90;;;;;;4985382;28;20050;-77
2022/01/14 06:55:17;;;;;;;21.65;8.52;;;-0.50;99.90;;;;;;4986673;28;19933;-78
2022/01/14 06:57:45;;;;;;;24.40;8.23;;;-0.50;99.90;;;;;;4986403;28;20061;-80
2022/01/14 07:00:15;;;;;;;22.45;8.43;;;-0.50;99.90;;;;;;4986885;28;20057;-80
2022/01/14 07:02:43;;;;;;;24.88;8.88;;;-0.50;99.90;;;;;;4985476;28;20069;-81
2022/01/14 07:05:11;;;;;;;25.05;8.48;;;-0.50;99.90;;;;;;4968900;28;20058;-80
2022/01/14 07:07:39;;;;;;;;;;;-0.50;99.90;;;;;;4986823;28;20054;-75
2022/01/14 07:10:12;;;;;;;20.58;8.82;;;-0.50;99.90;;;;;;4988644;28;19945;-80
2022/01/14 07:12:42;;;;;;;22.33;8.85;;;-0.50;99.90;;;;;;4989374;28;20046;-81
2022/01/14 07:15:15;;;;;;;24.70;9.52;;;-0.50;99.90;;;;;;4989208;28;20156;-79
2022/01/14 07:17:43;;;;;;;27.10;8.95;;;-0.50;99.90;;;;;;4990713;28;20391;-80
2022/01/14 07:20:13;;;;;;;22.75;8.70;;;-0.50;99.90;;;;;;4990168;28;20054;-79
2022/01/14 07:22:43;;;;;;;18.65;8.55;;;-0.50;99.90;;;;;;4990553;28;20050;-76
2022/01/14 07:25:17;;;;;;;23.02;8.80;;;-0.60;99.90;;;;;;4988684;28;20047;-75
2022/01/14 07:27:44;;;;;;;19.17;8.45;;;-0.50;99.90;;;;;;5005312;28;20416;-76
2022/01/14 07:30:16;;;;;;;19.92;8.23;;;-0.50;99.90;;;;;;4990223;28;20042;-80
2022/01/14 07:32:45;;;;;;;21.83;8.32;;;-0.50;99.90;;;;;;4990152;28;20042;-79
2022/01/14 07:35:12;;;;;;;25.65;9.02;;;-0.60;99.90;;;;;;4990166;28;20062;-82
2022/01/14 07:37:40;;;;;;;20.95;8.32;;;-0.60;99.90;;;;;;4990277;28;20050;-82
2022/01/14 07:40:09;;;;;;;18.92;8.75;;;-0.70;99.90;;;;;;4988826;28;20069;-81
2022/01/14 07:42:37;;;;;;;20.40;9.32;;;-0.70;99.90;;;;;;4988874;28;20038;-80
2022/01/14 07:45:06;;;;;;;23.25;9.18;;;-0.70;99.90;;;;;;4988648;28;20077;-80
2022/01/14 07:47:33;;;;;;;28.80;10.82;;;-0.70;99.90;;;;;;4988495;28;20050;-78
2022/01/14 07:50:01;;;;;;;26.02;10.43;;;-0.60;99.90;;;;;;4988259;28;20491;-82
2022/01/14 07:52:29;;;;;;;31.70;11.63;;;-0.80;99.90;;;;;;4988532;28;20491;-80
2022/01/14 07:54:57;;;;;;;31.70;11.68;;;-0.80;99.90;;;;;;4988699;28;20414;-83
2022/01/14 07:57:25;;;;;;;28.63;12.95;;;-0.80;99.90;;;;;;4989175;28;20050;-83
2022/01/14 07:59:52;;;;;;;35.95;13.10;;;-0.80;99.90;;;;;;4989876;28;20046;-78
2022/01/14 08:02:21;;;;;;;30.85;12.85;;;-0.70;99.90;;;;;;4969434;28;20062;-78
2022/01/14 08:04:49;;;;;;;35.75;14.35;;;-0.70;99.90;;;;;;4999001;28;20046;-80
2022/01/14 08:07:22;;;;;;;29.17;12.77;;;-0.70;99.90;;;;;;4983870;28;20047;-82
2022/01/14 08:09:56;;;;;;;29.00;14.80;;;-0.60;99.90;;;;;;4986929;28;20058;-76
2022/01/14 08:12:23;;;;;;;35.83;13.70;;;-0.60;99.90;;;;;;4986032;28;20050;-75
2022/01/14 08:14:51;;;;;;;37.70;13.55;;;-0.60;99.90;;;;;;4985062;28;21402;-76
2022/01/14 08:17:21;;;;;;;39.75;12.70;;;-0.60;99.90;;;;;;4973546;28;20368;-76
2022/01/14 08:19:49;;;;;;;30.08;12.57;;;-0.60;99.90;;;;;;4983009;28;20777;-78
2022/01/14 08:22:17;;;;;;;27.70;11.43;;;-0.60;99.90;;;;;;5002956;28;20033;-75
2022/01/14 08:24:45;;;;;;;28.85;11.52;;;-0.50;99.90;;;;;;4985941;28;20738;-75
2022/01/14 08:27:13;;;;;;;28.98;12.30;;;-0.50;99.90;;;;;;5022706;28;20077;-78
2022/01/14 08:29:41;;;;;;;24.02;10.15;;;-0.50;99.90;;;;;;5005792;28;20054;-77
2022/01/14 08:32:11;;;;;;;26.63;10.43;;;-0.40;99.90;;;;;;5006139;28;20045;-77
2022/01/14 08:34:38;;;;;;;22.27;9.85;;;-0.40;99.90;;;;;;5005770;28;20050;-74
2022/01/14 08:37:07;;;;;;;21.30;9.23;;;-0.40;99.90;;;;;;5006153;28;20053;-78
2022/01/14 08:39:34;;;;;;;25.23;9.25;;;-0.30;99.90;;;;;;5007584;28;20061;-76
2022/01/14 08:42:04;;;;;;;25.85;9.73;;;-0.30;99.90;;;;;;5007281;28;20054;-74
2022/01/14 08:44:32;;;;;;;19.30;8.35;;;-0.20;99.90;;;;;;4993082;28;20046;-77
2022/01/14 08:47:00;;;;;;;21.10;7.75;;;-0.20;99.90;;;;;;4984584;28;20160;-76
2022/01/14 08:49:28;;;;;;;18.55;6.57;;;-0.10;99.90;;;;;;4987878;28;20507;-77
2022/01/14 08:51:56;;;;;;;16.25;5.85;;;0.00;99.90;;;;;;4995225;28;20053;-75
2022/01/14 08:54:23;;;;;;;17.33;5.57;;;0.00;99.90;;;;;;5003606;28;20061;-77
2022/01/14 08:56:51;;;;;;;12.75;5.75;;;0.00;99.90;;;;;;5003823;28;20053;-76
2022/01/14 08:59:19;;;;;;;13.20;5.03;;;0.10;99.90;;;;;;5002191;28;20065;-78
2022/01/14 09:01:47;;;;;;;10.50;4.68;;;0.20;99.90;;;;;;4951209;28;1157707;-75
2022/01/14 09:04:16;;;;;;;9.60;4.13;;;0.20;99.90;;;;;;4993119;28;20034;-77
2022/01/14 09:06:44;;;;;;;12.23;4.38;;;0.30;99.90;;;;;;4982353;28;20089;-77
2022/01/14 09:09:12;;;;;;;14.20;3.80;;;0.30;99.90;;;;;;4994240;28;20038;-74
2022/01/14 09:11:40;;;;;;;11.10;4.10;;;0.50;99.90;;;;;;4981610;28;20773;-79
2022/01/14 09:14:08;;;;;;;20.02;4.40;;;0.60;99.90;;;;;;4986431;28;20565;-78
2022/01/14 09:16:36;;;;;;;;;;;0.60;99.90;;;;;;4986154;28;20046;-78
2022/01/14 09:19:06;;;;;;;13.15;3.58;;;0.80;99.90;;;;;;5005743;28;19925;-78
2022/01/14 09:21:33;;;;;;;13.10;3.83;;;0.80;99.90;;;;;;5004656;28;20056;-78
2022/01/14 09:24:04;;;;;;;9.52;3.42;;;0.90;99.90;;;;;;5005746;28;20417;-80
2022/01/14 09:26:33;;;;;;;20.02;4.60;;;1.00;99.90;;;;;;5004744;28;20384;-79
2022/01/14 09:29:03;;;;;;;15.40;4.20;;;1.10;99.90;;;;;;5004599;28;20049;-79
2022/01/14 09:31:31;;;;;;;12.35;4.20;;;1.20;99.90;;;;;;5007434;28;20057;-79
2022/01/14 09:33:59;;;;;;;11.20;4.28;;;1.40;99.90;;;;;;5006780;28;20072;-77
2022/01/14 09:36:27;;;;;;;15.93;5.13;;;1.40;99.90;;;;;;5007407;28;20041;-78
2022/01/14 09:38:57;;;;;;;14.45;5.10;;;1.50;99.90;;;;;;5006979;28;20422;-79
2022/01/14 09:41:25;;;;;;;17.30;6.32;;;1.50;99.90;;;;;;5021650;28;20077;-76
2022/01/14 09:43:53;;;;;;;;;;;1.60;99.90;;;;;;4994164;28;20050;-76
2022/01/14 09:46:21;;;;;;;15.60;5.07;;;1.70;99.90;;;;;;5000413;28;20412;-78
2022/01/14 09:48:50;;;;;;;8.80;4.38;;;1.80;99.90;;;;;;4999991;28;20059;-80
2022/01/14 09:51:19;;;;;;;14.65;5.00;;;2.00;99.90;;;;;;4988234;28;20577;-75
2022/01/14 09:53:47;;;;;;;11.98;5.43;;;2.10;99.90;;;;;;4985286;28;20073;-79
2022/01/14 09:56:18;;;;;;;17.73;5.95;;;2.20;99.90;;;;;;4985098;28;20039;-79
2022/01/14 09:58:48;;;;;;;17.63;6.13;;;2.30;99.90;;;;;;4985110;28;20050;-79
2022/01/14 10:01:18;;;;;;;18.60;5.63;;;2.40;99.90;;;;;;4984258;28;20045;-78
2022/01/14 10:04:01;;;;;;;14.70;5.65;;;2.60;99.90;;;;;;4985517;28;20054;-79
2022/01/14 10:06:45;;;;;;;19.70;6.15;;;2.60;99.90;;;;;;4984514;28;20419;-83
2022/01/14 10:09:23;;;;;;;18.95;6.18;;;2.70;99.90;;;;;;4980543;28;20053;-79
2022/01/14 10:12:05;;;;;;;20.52;5.82;;;2.90;99.90;;;;;;4974277;28;20058;-77
2022/01/14 10:14:39;;;;;;;23.02;7.13;;;3.00;99.90;;;;;;4978495;28;20503;-80
2022/01/14 10:17:09;;;;;;;20.65;7.38;;;3.10;99.90;;;;;;4985292;28;20047;-77
2022/01/14 10:19:40;;;;;;;19.85;7.28;;;3.30;99.90;;;;;;4981951;28;20399;-76
2022/01/14 10:22:28;;;;;;;19.25;7.93;;;3.40;99.90;;;;;;4997163;28;20045;-74
2022/01/14 10:25:03;;;;;;;22.15;7.40;;;3.90;99.90;;;;;;5004075;28;20048;-74
2022/01/14 10:27:34;;;;;;;20.30;8.40;;;4.50;99.90;;;;;;5000385;28;20050;-76
2022/01/14 10:30:25;;;;;;;18.58;7.70;;;5.40;99.90;;;;;;4992464;28;20049;-78
2022/01/14 10:33:01;;;;;;;20.75;8.63;;;6.30;99.90;;;;;;5000991;28;20050;-79
2022/01/14 10:35:35;;;;;;;22.10;8.38;;;7.20;99.90;;;;;;4981562;28;20043;-79
2022/01/14 10:38:07;;;;;;;20.83;8.27;;;8.10;99.90;;;;;;4999404;28;20989;-79
2022/01/14 10:40:41;;;;;;;20.73;8.88;;;8.90;99.90;;;;;;4968898;28;20055;-78
2022/01/14 10:43:15;;;;;;;262.40;28.45;;;9.60;99.90;;;;;;4952673;28;20808;-81
2022/01/14 10:45:54;;;;;;;102.00;17.27;;;10.30;99.90;;;;;;4985192;28;20061;-80
2022/01/14 10:48:29;;;;;;;37.40;11.35;;;11.00;99.90;;;;;;4995313;28;20053;-78
2022/01/14 10:51:03;;;;;;;21.90;10.40;;;11.60;99.90;;;;;;4978096;28;20527;-78
2022/01/14 10:53:39;;;;;;;31.02;11.13;;;12.00;99.90;;;;;;5001113;28;20530;-77
2022/01/14 10:56:14;;;;;;;29.17;11.82;;;12.40;99.90;;;;;;5002245;28;20045;-78
2022/01/14 10:58:44;;;;;;;21.98;11.23;;;12.60;99.90;;;;;;4996856;28;20065;-79
2022/01/14 11:01:17;;;;;;;24.27;11.07;;;13.00;99.90;;;;;;5004322;28;20046;-79
2022/01/14 11:04:10;;;;;;;20.85;11.20;;;13.40;99.90;;;;;;5003535;28;20073;-76
2022/01/14 11:06:43;;;;;;;25.55;11.50;;;13.80;99.90;;;;;;5003757;28;20062;-77
2022/01/14 11:09:13;;;;;;;30.25;11.63;;;14.10;99.90;;;;;;4990174;28;20050;-79
2022/01/14 11:11:44;;;;;;;23.10;10.95;;;14.40;99.90;;;;;;4969168;28;20053;-76
2022/01/14 11:14:14;;;;;;;25.27;13.00;;;14.70;99.90;;;;;;4996266;28;20047;-79
2022/01/14 11:17:16;;;;;;;31.52;15.70;;;15.10;99.90;;;;;;4984436;28;20494;-77
2022/01/14 11:20:10;;;;;;;25.63;13.65;;;15.40;99.90;;;;;;4990690;28;20057;-76
2022/01/14 11:25:25;;;;;;;26.55;11.45;;;16.00;99.90;;;;;;4983681;28;20066;-77
2022/01/14 11:27:57;;;;;;;25.17;12.60;;;16.20;99.90;;;;;;4974376;28;20100;-75
2022/01/14 11:30:36;;;;;;;27.17;12.50;;;16.50;99.10;;;;;;4974604;28;20058;-77
2022/01/14 11:33:06;;;;;;;25.23;13.55;;;16.70;97.10;;;;;;4989816;28;20046;-75
2022/01/14 11:35:37;;;;;;;24.63;12.85;;;16.90;98.40;;;;;;4969581;28;20406;-76
2022/01/14 11:38:34;;;;;;;22.60;11.18;;;17.10;97.80;;;;;;4983487;28;20047;-76
2022/01/14 11:41:04;;;;;;;24.38;12.30;;;17.50;94.60;;;;;;4976703;28;20042;-76
2022/01/14 11:43:51;;;;;;;24.38;12.73;;;17.60;97.20;;;;;;4991082;28;20046;-78
2022/01/14 11:46:31;;;;;;;24.50;13.00;;;17.70;94.80;;;;;;4977828;28;20526;-75
2022/01/14 11:49:00;;;;;;;23.23;12.15;;;17.90;93.60;;;;;;4988962;28;20161;-77
2022/01/14 11:51:28;;;;;;;28.40;11.52;;;17.90;95.70;;;;;;4987921;28;20519;-79
2022/01/14 11:54:14;;;;;;;22.42;11.35;;;18.10;95.00;;;;;;4998566;28;20042;-78
2022/01/14 11:56:44;;;;;;;23.45;12.10;;;18.20;92.80;;;;;;5004914;28;20049;-79
2022/01/14 11:59:18;;;;;;;22.13;11.38;;;18.20;93.60;;;;;;4994037;28;20105;-80
2022/01/14 12:01:47;;;;;;;21.85;11.73;;;18.40;92.80;;;;;;4993917;28;20047;-75
2022/01/14 12:04:15;;;;;;;23.67;12.20;;;18.50;93.40;;;;;;4998415;28;20483;-78
2022/01/14 12:06:55;;;;;;;;;;;18.60;93.10;;;;;;4993434;28;20039;-77
2022/01/14 12:09:24;;;;;;;27.67;13.95;;;18.70;90.90;;;;;;4987058;28;20374;-81
2022/01/14 12:12:22;;;;;;;27.67;14.02;;;18.80;92.70;;;;;;4988655;28;20346;-79
2022/01/14 12:15:02;;;;;;;30.10;13.65;;;19.00;89.60;;;;;;4986383;28;20069;-77
2022/01/14 12:17:41;;;;;;;25.95;13.82;;;19.10;91.40;;;;;;4972962;28;20054;-80
2022/01/14 12:20:14;;;;;;;25.70;12.48;;;19.20;88.80;;;;;;4995661;28;20065;-79
2022/01/14 12:23:08;;;;;;;22.55;11.95;;;19.30;89.30;;;;;;4990304;28;20050;-78
2022/01/14 12:25:44;;;;;;;18.77;11.18;;;19.30;85.50;;;;;;4981874;28;20420;-80
2022/01/14 12:28:25;;;;;;;24.70;11.90;;;19.40;86.60;;;;;;4973174;28;20046;-77
2022/01/14 12:31:01;;;;;;;21.42;10.65;;;19.60;86.30;;;;;;4978375;28;20042;-80
2022/01/14 12:33:45;;;;;;;23.83;11.75;;;19.60;86.10;;;;;;4982096;28;20062;-87
2022/01/14 12:36:18;;;;;;;23.30;11.48;;;19.70;84.90;;;;;;4988517;28;20050;-80
2022/01/14 12:38:47;;;;;;;22.98;12.13;;;19.80;87.10;;;;;;4983657;28;20050;-81
2022/01/14 12:41:23;;;;;;;22.63;11.98;;;19.80;86.60;;;;;;4998687;28;20053;-81
2022/01/14 12:43:53;;;;;;;24.92;12.60;;;19.80;84.90;;;;;;4970598;28;20084;-78
2022/01/14 12:46:40;;;;;;;21.95;11.75;;;19.60;85.30;;;;;;4986537;28;20494;-82
2022/01/14 12:49:22;;;;;;;18.57;9.77;;;19.40;85.00;;;;;;4968497;28;20050;-79
2022/01/14 12:52:05;;;;;;;14.50;7.55;;;19.30;83.50;;;;;;4971215;28;20046;-82
2022/01/14 12:54:37;;;;;;;18.85;7.35;;;19.10;83.00;;;;;;4975351;28;20050;-81
2022/01/14 12:57:06;;;;;;;17.42;8.68;;;18.80;85.60;;;;;;4976369;28;20042;-78
2022/01/14 12:59:38;;;;;;;19.40;8.90;;;18.40;84.90;;;;;;4984753;28;20046;-81
2022/01/14 13:02:07;;;;;;;20.30;9.57;;;18.00;85.40;;;;;;4982433;28;20047;-78
2022/01/14 13:04:35;;;;;;;21.75;9.40;;;17.80;86.80;;;;;;4987324;28;20046;-79
2022/01/14 13:07:04;;;;;;;23.77;10.05;;;17.60;87.60;;;;;;4984583;28;20518;-78
2022/01/14 13:09:36;;;;;;;19.38;9.85;;;17.40;87.20;;;;;;4986429;28;20046;-80
2022/01/14 13:12:05;;;;;;;21.27;9.93;;;17.30;87.70;;;;;;4966399;28;20050;-80
2022/01/14 13:14:42;;;;;;;23.08;9.63;;;17.10;88.10;;;;;;5013052;28;20042;-84
2022/01/14 13:17:16;;;;;;;22.88;10.32;;;17.10;87.80;;;;;;4983472;28;20046;-79
2022/01/14 13:19:45;;;;;;;19.85;9.00;;;17.00;88.30;;;;;;4982772;28;20144;-78
2022/01/14 13:22:16;;;;;;;22.27;9.38;;;16.80;88.10;;;;;;4983374;28;20042;-89
2022/01/14 13:24:49;;;;;;;24.70;9.20;;;16.70;88.70;;;;;;5005543;28;20042;-85
2022/01/14 13:27:27;;;;;;;18.52;8.30;;;16.60;89.10;;;;;;4996321;28;20054;-78